sensor_id;sensor_type;location;lat;lon;timestamp;P1;durP1;ratioP1;P2;durP2;ratioP2
3359;SDS011;1693;49.602;11.046;2023-07-16T00:00:34;0.90;;;0.60;;
3359;SDS011;1693;49.602;11.046;2023-07-16T00:03:02;1.13;;;1.03;;
3359;SDS011;1693;49.602;11.046;2023-07-16T00:05:29;1.00;;;0.90;;
3359;SDS011;1693;49.602;11.046;2023-07-16T00:07:56;1.53;;;1.10;;
3359;SDS011;1693;49.602;11.046;2023-07-16T00:10:25;1.10;;;0.80;;
3359;SDS011;1693;49.602;11.046;2023-07-16T00:12:52;1.30;;;1.20;;
3359;SDS011;1693;49.602;11.046;2023-07-16T00:15:20;1.43;;;1.17;;
3359;SDS011;1693;49.602;11.046;2023-07-16T00:17:47;1.00;;;0.70;;
3359;SDS011;1693;49.602;11.046;2023-07-16T00:20:14;1.73;;;1.37;;
3359;SDS011;1693;49.602;11.046;2023-07-16T00:22:42;0.90;;;0.60;;
3359;SDS011;1693;49.602;11.046;2023-07-16T00:25:09;1.33;;;1.23;;
3359;SDS011;1693;49.602;11.046;2023-07-16T00:27:37;1.20;;;0.80;;
3359;SDS011;1693;49.602;11.046;2023-07-16T00:30:06;1.00;;;0.73;;
3359;SDS011;1693;49.602;11.046;2023-07-16T00:32:33;1.00;;;0.70;;
3359;SDS011;1693;49.602;11.046;2023-07-16T00:35:00;0.90;;;0.60;;
3359;SDS011;1693;49.602;11.046;2023-07-16T00:37:28;0.90;;;0.60;;
3359;SDS011;1693;49.602;11.046;2023-07-16T00:39:55;0.90;;;0.60;;
3359;SDS011;1693;49.602;11.046;2023-07-16T00:42:22;1.30;;;0.70;;
3359;SDS011;1693;49.602;11.046;2023-07-16T00:44:51;3.13;;;2.83;;
3359;SDS011;1693;49.602;11.046;2023-07-16T00:47:18;0.90;;;0.60;;
3359;SDS011;1693;49.602;11.046;2023-07-16T00:49:46;0.90;;;0.60;;
3359;SDS011;1693;49.602;11.046;2023-07-16T00:52:14;0.90;;;0.57;;
3359;SDS011;1693;49.602;11.046;2023-07-16T00:54:43;0.90;;;0.60;;
3359;SDS011;1693;49.602;11.046;2023-07-16T00:57:11;0.90;;;0.67;;
3359;SDS011;1693;49.602;11.046;2023-07-16T00:59:38;1.00;;;0.70;;
3359;SDS011;1693;49.602;11.046;2023-07-16T01:02:07;1.00;;;0.80;;
3359;SDS011;1693;49.602;11.046;2023-07-16T01:04:34;0.90;;;0.70;;
3359;SDS011;1693;49.602;11.046;2023-07-16T01:07:03;0.90;;;0.67;;
3359;SDS011;1693;49.602;11.046;2023-07-16T01:09:31;3.67;;;2.13;;
3359;SDS011;1693;49.602;11.046;2023-07-16T01:12:02;0.90;;;0.60;;
3359;SDS011;1693;49.602;11.046;2023-07-16T01:14:30;0.90;;;0.60;;
3359;SDS011;1693;49.602;11.046;2023-07-16T01:16:58;0.90;;;0.70;;
3359;SDS011;1693;49.602;11.046;2023-07-16T01:19:26;0.90;;;0.60;;
3359;SDS011;1693;49.602;11.046;2023-07-16T01:21:57;1.10;;;0.90;;
3359;SDS011;1693;49.602;11.046;2023-07-16T01:27:17;0.90;;;0.60;;
3359;SDS011;1693;49.602;11.046;2023-07-16T01:29:51;1.10;;;0.93;;
3359;SDS011;1693;49.602;11.046;2023-07-16T01:32:21;0.90;;;0.60;;
3359;SDS011;1693;49.602;11.046;2023-07-16T01:34:49;0.90;;;0.60;;
3359;SDS011;1693;49.602;11.046;2023-07-16T01:37:19;0.90;;;0.70;;
3359;SDS011;1693;49.602;11.046;2023-07-16T01:39:46;0.97;;;0.60;;
3359;SDS011;1693;49.602;11.046;2023-07-16T01:42:14;0.90;;;0.67;;
3359;SDS011;1693;49.602;11.046;2023-07-16T01:44:41;0.90;;;0.60;;
3359;SDS011;1693;49.602;11.046;2023-07-16T01:47:11;1.30;;;1.00;;
3359;SDS011;1693;49.602;11.046;2023-07-16T01:49:39;0.90;;;0.60;;
3359;SDS011;1693;49.602;11.046;2023-07-16T01:52:07;0.90;;;0.60;;
3359;SDS011;1693;49.602;11.046;2023-07-16T01:54:35;1.00;;;0.70;;
3359;SDS011;1693;49.602;11.046;2023-07-16T01:57:02;1.13;;;0.90;;
3359;SDS011;1693;49.602;11.046;2023-07-16T01:59:30;1.47;;;1.37;;
3359;SDS011;1693;49.602;11.046;2023-07-16T02:01:57;0.90;;;0.63;;
3359;SDS011;1693;49.602;11.046;2023-07-16T02:04:26;0.90;;;0.60;;
3359;SDS011;1693;49.602;11.046;2023-07-16T02:06:54;0.90;;;0.63;;
3359;SDS011;1693;49.602;11.046;2023-07-16T02:09:21;1.10;;;0.90;;
3359;SDS011;1693;49.602;11.046;2023-07-16T02:11:50;0.90;;;0.60;;
3359;SDS011;1693;49.602;11.046;2023-07-16T02:14:17;0.90;;;0.60;;
3359;SDS011;1693;49.602;11.046;2023-07-16T02:16:45;1.00;;;0.77;;
3359;SDS011;1693;49.602;11.046;2023-07-16T02:19:12;0.90;;;0.60;;
3359;SDS011;1693;49.602;11.046;2023-07-16T02:21:41;1.00;;;0.90;;
3359;SDS011;1693;49.602;11.046;2023-07-16T02:24:08;1.00;;;0.70;;
3359;SDS011;1693;49.602;11.046;2023-07-16T02:26:35;0.90;;;0.67;;
3359;SDS011;1693;49.602;11.046;2023-07-16T02:29:03;0.90;;;0.60;;
3359;SDS011;1693;49.602;11.046;2023-07-16T02:31:33;0.90;;;0.60;;
3359;SDS011;1693;49.602;11.046;2023-07-16T02:34:01;0.90;;;0.60;;
3359;SDS011;1693;49.602;11.046;2023-07-16T02:36:28;0.90;;;0.60;;
3359;SDS011;1693;49.602;11.046;2023-07-16T02:38:57;1.70;;;1.27;;
3359;SDS011;1693;49.602;11.046;2023-07-16T02:41:24;0.90;;;0.60;;
3359;SDS011;1693;49.602;11.046;2023-07-16T02:43:58;0.90;;;0.60;;
3359;SDS011;1693;49.602;11.046;2023-07-16T02:46:26;0.90;;;0.60;;
3359;SDS011;1693;49.602;11.046;2023-07-16T02:48:54;0.90;;;0.60;;
3359;SDS011;1693;49.602;11.046;2023-07-16T02:51:21;1.03;;;0.87;;
3359;SDS011;1693;49.602;11.046;2023-07-16T02:53:50;1.00;;;0.73;;
3359;SDS011;1693;49.602;11.046;2023-07-16T02:56:18;0.90;;;0.60;;
3359;SDS011;1693;49.602;11.046;2023-07-16T02:58:45;0.90;;;0.60;;
3359;SDS011;1693;49.602;11.046;2023-07-16T03:01:13;0.90;;;0.63;;
3359;SDS011;1693;49.602;11.046;2023-07-16T03:03:40;0.90;;;0.60;;
3359;SDS011;1693;49.602;11.046;2023-07-16T03:06:07;0.90;;;0.60;;
3359;SDS011;1693;49.602;11.046;2023-07-16T03:08:35;0.90;;;0.60;;
3359;SDS011;1693;49.602;11.046;2023-07-16T03:11:02;0.97;;;0.63;;
3359;SDS011;1693;49.602;11.046;2023-07-16T03:13:31;0.90;;;0.60;;
3359;SDS011;1693;49.602;11.046;2023-07-16T03:15:58;0.90;;;0.60;;
3359;SDS011;1693;49.602;11.046;2023-07-16T03:18:27;0.90;;;0.60;;
3359;SDS011;1693;49.602;11.046;2023-07-16T03:20:55;1.17;;;1.07;;
3359;SDS011;1693;49.602;11.046;2023-07-16T03:23:23;0.90;;;0.60;;
3359;SDS011;1693;49.602;11.046;2023-07-16T03:25:51;0.90;;;0.60;;
3359;SDS011;1693;49.602;11.046;2023-07-16T03:28:18;2.40;;;2.20;;
3359;SDS011;1693;49.602;11.046;2023-07-16T03:30:47;0.90;;;0.60;;
3359;SDS011;1693;49.602;11.046;2023-07-16T03:33:14;0.90;;;0.60;;
3359;SDS011;1693;49.602;11.046;2023-07-16T03:35:42;0.90;;;0.60;;
3359;SDS011;1693;49.602;11.046;2023-07-16T03:38:10;0.90;;;0.60;;
3359;SDS011;1693;49.602;11.046;2023-07-16T03:40:37;0.90;;;0.60;;
3359;SDS011;1693;49.602;11.046;2023-07-16T03:43:04;0.90;;;0.60;;
3359;SDS011;1693;49.602;11.046;2023-07-16T03:45:33;0.90;;;0.70;;
3359;SDS011;1693;49.602;11.046;2023-07-16T03:48:02;1.00;;;0.70;;
3359;SDS011;1693;49.602;11.046;2023-07-16T03:50:29;0.90;;;0.60;;
3359;SDS011;1693;49.602;11.046;2023-07-16T03:52:56;1.00;;;0.70;;
3359;SDS011;1693;49.602;11.046;2023-07-16T03:55:24;0.90;;;0.70;;
3359;SDS011;1693;49.602;11.046;2023-07-16T03:57:51;1.00;;;0.70;;
3359;SDS011;1693;49.602;11.046;2023-07-16T04:00:18;1.00;;;0.80;;
3359;SDS011;1693;49.602;11.046;2023-07-16T04:02:46;0.90;;;0.60;;
3359;SDS011;1693;49.602;11.046;2023-07-16T04:05:15;0.90;;;0.60;;
3359;SDS011;1693;49.602;11.046;2023-07-16T04:07:42;1.03;;;0.90;;
3359;SDS011;1693;49.602;11.046;2023-07-16T04:10:09;0.90;;;0.60;;
3359;SDS011;1693;49.602;11.046;2023-07-16T04:12:36;0.90;;;0.60;;
3359;SDS011;1693;49.602;11.046;2023-07-16T04:15:07;0.90;;;0.60;;
3359;SDS011;1693;49.602;11.046;2023-07-16T04:17:34;1.60;;;0.80;;
3359;SDS011;1693;49.602;11.046;2023-07-16T04:20:02;1.00;;;0.67;;
3359;SDS011;1693;49.602;11.046;2023-07-16T04:22:33;0.90;;;0.60;;
3359;SDS011;1693;49.602;11.046;2023-07-16T04:25:00;0.97;;;0.70;;
3359;SDS011;1693;49.602;11.046;2023-07-16T04:27:28;0.93;;;0.60;;
3359;SDS011;1693;49.602;11.046;2023-07-16T04:29:56;1.00;;;0.60;;
3359;SDS011;1693;49.602;11.046;2023-07-16T04:32:23;3.43;;;3.23;;
3359;SDS011;1693;49.602;11.046;2023-07-16T04:34:50;1.00;;;0.70;;
3359;SDS011;1693;49.602;11.046;2023-07-16T04:37:18;1.00;;;0.67;;
3359;SDS011;1693;49.602;11.046;2023-07-16T04:39:47;0.90;;;0.60;;
3359;SDS011;1693;49.602;11.046;2023-07-16T04:42:14;1.00;;;0.80;;
3359;SDS011;1693;49.602;11.046;2023-07-16T04:44:42;1.00;;;0.70;;
3359;SDS011;1693;49.602;11.046;2023-07-16T04:47:09;1.00;;;0.60;;
3359;SDS011;1693;49.602;11.046;2023-07-16T04:49:37;1.00;;;0.60;;
3359;SDS011;1693;49.602;11.046;2023-07-16T04:52:05;1.00;;;0.60;;
3359;SDS011;1693;49.602;11.046;2023-07-16T04:54:34;1.00;;;0.67;;
3359;SDS011;1693;49.602;11.046;2023-07-16T04:57:03;0.97;;;0.60;;
3359;SDS011;1693;49.602;11.046;2023-07-16T04:59:31;1.00;;;0.60;;
3359;SDS011;1693;49.602;11.046;2023-07-16T05:01:58;0.97;;;0.67;;
3359;SDS011;1693;49.602;11.046;2023-07-16T05:04:26;0.90;;;0.60;;
3359;SDS011;1693;49.602;11.046;2023-07-16T05:06:53;1.00;;;0.67;;
3359;SDS011;1693;49.602;11.046;2023-07-16T05:09:20;0.97;;;0.60;;
3359;SDS011;1693;49.602;11.046;2023-07-16T05:11:48;1.10;;;0.70;;
3359;SDS011;1693;49.602;11.046;2023-07-16T05:14:16;1.00;;;0.60;;
3359;SDS011;1693;49.602;11.046;2023-07-16T05:16:44;0.90;;;0.60;;
3359;SDS011;1693;49.602;11.046;2023-07-16T05:19:11;1.00;;;0.70;;
3359;SDS011;1693;49.602;11.046;2023-07-16T05:21:38;2.30;;;1.80;;
3359;SDS011;1693;49.602;11.046;2023-07-16T05:24:05;1.00;;;0.70;;
3359;SDS011;1693;49.602;11.046;2023-07-16T05:26:33;1.00;;;0.70;;
3359;SDS011;1693;49.602;11.046;2023-07-16T05:29:00;0.90;;;0.60;;
3359;SDS011;1693;49.602;11.046;2023-07-16T05:31:29;1.00;;;0.60;;
3359;SDS011;1693;49.602;11.046;2023-07-16T05:33:56;1.00;;;0.60;;
3359;SDS011;1693;49.602;11.046;2023-07-16T05:36:24;1.00;;;0.60;;
3359;SDS011;1693;49.602;11.046;2023-07-16T05:38:51;0.90;;;0.60;;
3359;SDS011;1693;49.602;11.046;2023-07-16T05:41:18;0.97;;;0.60;;
3359;SDS011;1693;49.602;11.046;2023-07-16T05:43:46;1.37;;;1.27;;
3359;SDS011;1693;49.602;11.046;2023-07-16T05:46:13;2.40;;;1.00;;
3359;SDS011;1693;49.602;11.046;2023-07-16T05:48:42;0.90;;;0.60;;
3359;SDS011;1693;49.602;11.046;2023-07-16T05:51:09;0.93;;;0.60;;
3359;SDS011;1693;49.602;11.046;2023-07-16T05:53:36;0.90;;;0.60;;
3359;SDS011;1693;49.602;11.046;2023-07-16T05:56:04;1.00;;;0.67;;
3359;SDS011;1693;49.602;11.046;2023-07-16T05:58:31;1.10;;;0.70;;
3359;SDS011;1693;49.602;11.046;2023-07-16T06:00:59;0.90;;;0.60;;
3359;SDS011;1693;49.602;11.046;2023-07-16T06:03:26;1.00;;;0.60;;
3359;SDS011;1693;49.602;11.046;2023-07-16T06:05:55;1.00;;;0.60;;
3359;SDS011;1693;49.602;11.046;2023-07-16T06:08:22;1.00;;;0.60;;
3359;SDS011;1693;49.602;11.046;2023-07-16T06:10:50;1.00;;;0.60;;
3359;SDS011;1693;49.602;11.046;2023-07-16T06:13:17;1.00;;;0.70;;
3359;SDS011;1693;49.602;11.046;2023-07-16T06:15:45;1.00;;;0.70;;
3359;SDS011;1693;49.602;11.046;2023-07-16T06:18:12;0.90;;;0.60;;
3359;SDS011;1693;49.602;11.046;2023-07-16T06:20:43;0.90;;;0.60;;
3359;SDS011;1693;49.602;11.046;2023-07-16T06:23:11;0.97;;;0.60;;
3359;SDS011;1693;49.602;11.046;2023-07-16T06:25:41;0.90;;;0.60;;
3359;SDS011;1693;49.602;11.046;2023-07-16T06:28:09;1.00;;;0.67;;
3359;SDS011;1693;49.602;11.046;2023-07-16T06:30:37;0.90;;;0.60;;
3359;SDS011;1693;49.602;11.046;2023-07-16T06:33:04;1.00;;;0.70;;
3359;SDS011;1693;49.602;11.046;2023-07-16T06:35:31;0.90;;;0.60;;
3359;SDS011;1693;49.602;11.046;2023-07-16T06:37:59;0.93;;;0.60;;
3359;SDS011;1693;49.602;11.046;2023-07-16T06:40:28;1.00;;;0.60;;
3359;SDS011;1693;49.602;11.046;2023-07-16T06:42:55;1.00;;;0.60;;
3359;SDS011;1693;49.602;11.046;2023-07-16T06:45:22;0.90;;;0.60;;
3359;SDS011;1693;49.602;11.046;2023-07-16T06:47:50;1.03;;;0.70;;
3359;SDS011;1693;49.602;11.046;2023-07-16T06:50:17;0.90;;;0.60;;
3359;SDS011;1693;49.602;11.046;2023-07-16T06:52:44;0.90;;;0.70;;
3359;SDS011;1693;49.602;11.046;2023-07-16T06:55:12;1.00;;;0.70;;
3359;SDS011;1693;49.602;11.046;2023-07-16T06:57:41;1.20;;;0.90;;
3359;SDS011;1693;49.602;11.046;2023-07-16T07:00:08;0.90;;;0.63;;
3359;SDS011;1693;49.602;11.046;2023-07-16T07:02:37;0.97;;;0.60;;
3359;SDS011;1693;49.602;11.046;2023-07-16T07:05:04;0.90;;;0.60;;
3359;SDS011;1693;49.602;11.046;2023-07-16T07:07:32;1.00;;;0.60;;
3359;SDS011;1693;49.602;11.046;2023-07-16T07:09:59;0.97;;;0.60;;
3359;SDS011;1693;49.602;11.046;2023-07-16T07:12:26;1.00;;;0.60;;
3359;SDS011;1693;49.602;11.046;2023-07-16T07:14:55;1.00;;;0.67;;
3359;SDS011;1693;49.602;11.046;2023-07-16T07:17:22;6.67;;;1.57;;
3359;SDS011;1693;49.602;11.046;2023-07-16T07:19:50;5.40;;;2.43;;
3359;SDS011;1693;49.602;11.046;2023-07-16T07:22:17;5.87;;;2.43;;
3359;SDS011;1693;49.602;11.046;2023-07-16T07:24:44;9.90;;;6.80;;
3359;SDS011;1693;49.602;11.046;2023-07-16T07:27:11;6.30;;;4.37;;
3359;SDS011;1693;49.602;11.046;2023-07-16T07:29:38;5.33;;;2.93;;
3359;SDS011;1693;49.602;11.046;2023-07-16T07:32:07;3.57;;;2.80;;
3359;SDS011;1693;49.602;11.046;2023-07-16T07:34:34;3.77;;;2.67;;
3359;SDS011;1693;49.602;11.046;2023-07-16T07:37:03;6.27;;;2.57;;
3359;SDS011;1693;49.602;11.046;2023-07-16T07:39:30;4.77;;;2.97;;
3359;SDS011;1693;49.602;11.046;2023-07-16T07:41:57;5.77;;;2.83;;
3359;SDS011;1693;49.602;11.046;2023-07-16T07:44:24;3.97;;;2.63;;
3359;SDS011;1693;49.602;11.046;2023-07-16T07:46:51;7.20;;;2.80;;
3359;SDS011;1693;49.602;11.046;2023-07-16T07:49:20;5.73;;;2.10;;
3359;SDS011;1693;49.602;11.046;2023-07-16T07:51:47;7.97;;;2.37;;
3359;SDS011;1693;49.602;11.046;2023-07-16T07:54:14;4.77;;;2.93;;
3359;SDS011;1693;49.602;11.046;2023-07-16T07:56:41;8.20;;;2.43;;
3359;SDS011;1693;49.602;11.046;2023-07-16T07:59:08;4.83;;;2.67;;
3359;SDS011;1693;49.602;11.046;2023-07-16T08:01:35;4.40;;;2.03;;
3359;SDS011;1693;49.602;11.046;2023-07-16T08:04:03;3.97;;;2.70;;
3359;SDS011;1693;49.602;11.046;2023-07-16T08:06:33;4.00;;;2.00;;
3359;SDS011;1693;49.602;11.046;2023-07-16T08:09:01;4.47;;;2.50;;
3359;SDS011;1693;49.602;11.046;2023-07-16T08:11:28;4.00;;;2.50;;
3359;SDS011;1693;49.602;11.046;2023-07-16T08:13:55;4.57;;;2.27;;
3359;SDS011;1693;49.602;11.046;2023-07-16T08:16:22;5.17;;;2.50;;
3359;SDS011;1693;49.602;11.046;2023-07-16T08:18:49;10.07;;;3.10;;
3359;SDS011;1693;49.602;11.046;2023-07-16T08:21:16;6.13;;;2.33;;
3359;SDS011;1693;49.602;11.046;2023-07-16T08:23:46;3.47;;;2.00;;
3359;SDS011;1693;49.602;11.046;2023-07-16T08:26:13;4.73;;;2.40;;
3359;SDS011;1693;49.602;11.046;2023-07-16T08:28:40;3.43;;;2.50;;
3359;SDS011;1693;49.602;11.046;2023-07-16T08:31:13;9.03;;;2.70;;
3359;SDS011;1693;49.602;11.046;2023-07-16T08:33:40;6.53;;;2.37;;
3359;SDS011;1693;49.602;11.046;2023-07-16T08:36:08;4.90;;;2.67;;
3359;SDS011;1693;49.602;11.046;2023-07-16T08:38:36;4.43;;;2.57;;
3359;SDS011;1693;49.602;11.046;2023-07-16T08:41:04;2.93;;;1.90;;
3359;SDS011;1693;49.602;11.046;2023-07-16T08:43:31;4.90;;;2.50;;
3359;SDS011;1693;49.602;11.046;2023-07-16T08:46:00;5.33;;;2.13;;
3359;SDS011;1693;49.602;11.046;2023-07-16T08:48:27;4.83;;;2.67;;
3359;SDS011;1693;49.602;11.046;2023-07-16T08:50:55;2.97;;;2.13;;
3359;SDS011;1693;49.602;11.046;2023-07-16T08:53:23;4.80;;;2.57;;
3359;SDS011;1693;49.602;11.046;2023-07-16T08:55:50;6.60;;;2.87;;
3359;SDS011;1693;49.602;11.046;2023-07-16T08:58:19;4.10;;;2.00;;
3359;SDS011;1693;49.602;11.046;2023-07-16T09:00:50;5.00;;;2.17;;
3359;SDS011;1693;49.602;11.046;2023-07-16T09:03:18;7.60;;;2.70;;
3359;SDS011;1693;49.602;11.046;2023-07-16T09:05:45;6.10;;;2.70;;
3359;SDS011;1693;49.602;11.046;2023-07-16T09:08:12;8.20;;;2.37;;
3359;SDS011;1693;49.602;11.046;2023-07-16T09:10:39;4.13;;;2.10;;
3359;SDS011;1693;49.602;11.046;2023-07-16T09:13:07;9.00;;;2.43;;
3359;SDS011;1693;49.602;11.046;2023-07-16T09:15:36;6.40;;;2.57;;
3359;SDS011;1693;49.602;11.046;2023-07-16T09:18:06;5.23;;;3.00;;
3359;SDS011;1693;49.602;11.046;2023-07-16T09:20:39;4.90;;;2.77;;
3359;SDS011;1693;49.602;11.046;2023-07-16T09:23:06;4.03;;;2.47;;
3359;SDS011;1693;49.602;11.046;2023-07-16T09:25:35;2.87;;;1.97;;
3359;SDS011;1693;49.602;11.046;2023-07-16T09:28:05;3.63;;;2.20;;
3359;SDS011;1693;49.602;11.046;2023-07-16T09:30:35;5.33;;;2.60;;
3359;SDS011;1693;49.602;11.046;2023-07-16T09:33:13;4.97;;;2.43;;
3359;SDS011;1693;49.602;11.046;2023-07-16T09:35:41;6.07;;;2.60;;
3359;SDS011;1693;49.602;11.046;2023-07-16T09:38:07;4.37;;;2.33;;
3359;SDS011;1693;49.602;11.046;2023-07-16T09:40:35;9.70;;;2.60;;
3359;SDS011;1693;49.602;11.046;2023-07-16T09:43:04;2.77;;;2.10;;
3359;SDS011;1693;49.602;11.046;2023-07-16T09:45:32;9.70;;;2.40;;
3359;SDS011;1693;49.602;11.046;2023-07-16T09:48:01;4.73;;;2.20;;
3359;SDS011;1693;49.602;11.046;2023-07-16T09:50:29;9.20;;;2.37;;
3359;SDS011;1693;49.602;11.046;2023-07-16T09:52:58;4.30;;;2.37;;
3359;SDS011;1693;49.602;11.046;2023-07-16T09:55:25;4.07;;;2.40;;
3359;SDS011;1693;49.602;11.046;2023-07-16T09:57:53;3.83;;;2.03;;
3359;SDS011;1693;49.602;11.046;2023-07-16T10:00:23;2.80;;;2.37;;
3359;SDS011;1693;49.602;11.046;2023-07-16T10:02:51;7.83;;;2.67;;
3359;SDS011;1693;49.602;11.046;2023-07-16T10:05:23;11.50;;;2.60;;
3359;SDS011;1693;49.602;11.046;2023-07-16T10:07:51;4.50;;;2.10;;
3359;SDS011;1693;49.602;11.046;2023-07-16T10:10:20;5.20;;;2.10;;
3359;SDS011;1693;49.602;11.046;2023-07-16T10:12:56;8.40;;;2.70;;
3359;SDS011;1693;49.602;11.046;2023-07-16T10:15:24;6.13;;;2.73;;
3359;SDS011;1693;49.602;11.046;2023-07-16T10:17:52;4.40;;;2.27;;
3359;SDS011;1693;49.602;11.046;2023-07-16T10:20:29;6.20;;;2.57;;
3359;SDS011;1693;49.602;11.046;2023-07-16T10:22:57;5.30;;;2.30;;
3359;SDS011;1693;49.602;11.046;2023-07-16T10:25:26;4.53;;;2.13;;
3359;SDS011;1693;49.602;11.046;2023-07-16T10:27:55;6.17;;;2.53;;
3359;SDS011;1693;49.602;11.046;2023-07-16T10:30:22;8.00;;;2.77;;
3359;SDS011;1693;49.602;11.046;2023-07-16T10:32:50;3.10;;;2.00;;
3359;SDS011;1693;49.602;11.046;2023-07-16T10:35:18;21.13;;;3.47;;
3359;SDS011;1693;49.602;11.046;2023-07-16T10:37:48;12.03;;;2.63;;
3359;SDS011;1693;49.602;11.046;2023-07-16T10:40:16;4.33;;;2.10;;
3359;SDS011;1693;49.602;11.046;2023-07-16T10:42:44;4.83;;;1.90;;
3359;SDS011;1693;49.602;11.046;2023-07-16T10:45:13;5.80;;;2.00;;
3359;SDS011;1693;49.602;11.046;2023-07-16T10:47:40;3.83;;;1.73;;
3359;SDS011;1693;49.602;11.046;2023-07-16T10:50:18;7.80;;;2.63;;
3359;SDS011;1693;49.602;11.046;2023-07-16T10:52:46;3.10;;;1.83;;
3359;SDS011;1693;49.602;11.046;2023-07-16T10:55:20;4.50;;;1.93;;
3359;SDS011;1693;49.602;11.046;2023-07-16T10:57:49;4.60;;;2.00;;
3359;SDS011;1693;49.602;11.046;2023-07-16T11:00:18;6.17;;;2.07;;
3359;SDS011;1693;49.602;11.046;2023-07-16T11:02:45;13.53;;;3.80;;
3359;SDS011;1693;49.602;11.046;2023-07-16T11:05:13;3.83;;;2.17;;
3359;SDS011;1693;49.602;11.046;2023-07-16T11:07:42;5.77;;;1.77;;
3359;SDS011;1693;49.602;11.046;2023-07-16T11:10:11;6.87;;;2.20;;
3359;SDS011;1693;49.602;11.046;2023-07-16T11:12:38;4.10;;;1.97;;
3359;SDS011;1693;49.602;11.046;2023-07-16T11:15:05;3.47;;;1.90;;
3359;SDS011;1693;49.602;11.046;2023-07-16T11:17:36;8.80;;;2.00;;
3359;SDS011;1693;49.602;11.046;2023-07-16T11:20:06;5.13;;;2.30;;
3359;SDS011;1693;49.602;11.046;2023-07-16T11:22:37;4.53;;;2.30;;
3359;SDS011;1693;49.602;11.046;2023-07-16T11:25:12;7.93;;;1.90;;
3359;SDS011;1693;49.602;11.046;2023-07-16T11:27:41;6.23;;;1.60;;
3359;SDS011;1693;49.602;11.046;2023-07-16T11:30:09;2.70;;;1.93;;
3359;SDS011;1693;49.602;11.046;2023-07-16T11:32:41;2.60;;;1.63;;
3359;SDS011;1693;49.602;11.046;2023-07-16T11:35:11;4.03;;;1.63;;
3359;SDS011;1693;49.602;11.046;2023-07-16T11:37:42;6.33;;;1.97;;
3359;SDS011;1693;49.602;11.046;2023-07-16T11:40:10;5.40;;;2.20;;
3359;SDS011;1693;49.602;11.046;2023-07-16T11:42:39;5.53;;;1.80;;
3359;SDS011;1693;49.602;11.046;2023-07-16T11:45:14;4.13;;;1.60;;
3359;SDS011;1693;49.602;11.046;2023-07-16T11:47:42;4.17;;;1.83;;
3359;SDS011;1693;49.602;11.046;2023-07-16T11:50:10;3.67;;;1.70;;
3359;SDS011;1693;49.602;11.046;2023-07-16T11:52:37;5.77;;;2.00;;
3359;SDS011;1693;49.602;11.046;2023-07-16T11:55:05;4.30;;;1.83;;
3359;SDS011;1693;49.602;11.046;2023-07-16T11:57:33;4.27;;;1.83;;
3359;SDS011;1693;49.602;11.046;2023-07-16T12:00:02;3.10;;;1.97;;
3359;SDS011;1693;49.602;11.046;2023-07-16T12:02:31;5.03;;;2.03;;
3359;SDS011;1693;49.602;11.046;2023-07-16T12:04:58;5.40;;;1.73;;
3359;SDS011;1693;49.602;11.046;2023-07-16T12:07:32;4.80;;;1.80;;
3359;SDS011;1693;49.602;11.046;2023-07-16T12:10:01;6.10;;;1.77;;
3359;SDS011;1693;49.602;11.046;2023-07-16T12:12:28;3.90;;;1.70;;
3359;SDS011;1693;49.602;11.046;2023-07-16T12:14:56;4.03;;;1.67;;
3359;SDS011;1693;49.602;11.046;2023-07-16T12:17:24;3.67;;;1.77;;
3359;SDS011;1693;49.602;11.046;2023-07-16T12:19:51;7.13;;;1.70;;
3359;SDS011;1693;49.602;11.046;2023-07-16T12:22:18;4.53;;;2.00;;
3359;SDS011;1693;49.602;11.046;2023-07-16T12:24:45;4.53;;;1.60;;
3359;SDS011;1693;49.602;11.046;2023-07-16T12:27:13;3.00;;;1.70;;
3359;SDS011;1693;49.602;11.046;2023-07-16T12:29:40;3.53;;;1.63;;
3359;SDS011;1693;49.602;11.046;2023-07-16T12:32:08;7.47;;;2.00;;
3359;SDS011;1693;49.602;11.046;2023-07-16T12:34:37;4.23;;;2.00;;
3359;SDS011;1693;49.602;11.046;2023-07-16T12:37:04;3.57;;;1.93;;
3359;SDS011;1693;49.602;11.046;2023-07-16T12:39:31;3.87;;;2.70;;
3359;SDS011;1693;49.602;11.046;2023-07-16T12:41:58;2.90;;;2.07;;
3359;SDS011;1693;49.602;11.046;2023-07-16T12:44:26;2.70;;;1.90;;
3359;SDS011;1693;49.602;11.046;2023-07-16T12:46:53;3.37;;;1.97;;
3359;SDS011;1693;49.602;11.046;2023-07-16T12:49:21;4.10;;;2.70;;
3359;SDS011;1693;49.602;11.046;2023-07-16T12:51:55;2.93;;;2.03;;
3359;SDS011;1693;49.602;11.046;2023-07-16T12:54:22;2.57;;;1.67;;
3359;SDS011;1693;49.602;11.046;2023-07-16T12:56:50;3.80;;;1.60;;
3359;SDS011;1693;49.602;11.046;2023-07-16T12:59:16;3.13;;;1.80;;
3359;SDS011;1693;49.602;11.046;2023-07-16T13:01:43;4.63;;;1.97;;
3359;SDS011;1693;49.602;11.046;2023-07-16T13:04:11;4.80;;;1.80;;
3359;SDS011;1693;49.602;11.046;2023-07-16T13:06:38;10.27;;;1.87;;
3359;SDS011;1693;49.602;11.046;2023-07-16T13:09:07;3.77;;;1.73;;
3359;SDS011;1693;49.602;11.046;2023-07-16T13:11:37;2.47;;;1.70;;
3359;SDS011;1693;49.602;11.046;2023-07-16T13:14:07;3.33;;;1.53;;
3359;SDS011;1693;49.602;11.046;2023-07-16T13:16:34;3.80;;;2.47;;
3359;SDS011;1693;49.602;11.046;2023-07-16T13:19:03;4.10;;;1.87;;
3359;SDS011;1693;49.602;11.046;2023-07-16T13:21:32;2.60;;;1.57;;
3359;SDS011;1693;49.602;11.046;2023-07-16T13:24:04;4.10;;;1.77;;
3359;SDS011;1693;49.602;11.046;2023-07-16T13:26:34;3.53;;;1.77;;
3359;SDS011;1693;49.602;11.046;2023-07-16T13:29:02;4.33;;;2.30;;
3359;SDS011;1693;49.602;11.046;2023-07-16T13:31:31;3.30;;;1.87;;
3359;SDS011;1693;49.602;11.046;2023-07-16T13:33:59;6.33;;;2.17;;
3359;SDS011;1693;49.602;11.046;2023-07-16T13:36:28;5.70;;;2.30;;
3359;SDS011;1693;49.602;11.046;2023-07-16T13:38:55;3.10;;;2.17;;
3359;SDS011;1693;49.602;11.046;2023-07-16T13:41:22;3.87;;;1.60;;
3359;SDS011;1693;49.602;11.046;2023-07-16T13:43:50;2.10;;;1.80;;
3359;SDS011;1693;49.602;11.046;2023-07-16T13:46:18;3.60;;;1.87;;
3359;SDS011;1693;49.602;11.046;2023-07-16T13:48:45;3.47;;;1.63;;
3359;SDS011;1693;49.602;11.046;2023-07-16T13:51:12;3.00;;;1.80;;
3359;SDS011;1693;49.602;11.046;2023-07-16T13:53:39;3.90;;;2.03;;
3359;SDS011;1693;49.602;11.046;2023-07-16T13:56:06;2.50;;;1.90;;
3359;SDS011;1693;49.602;11.046;2023-07-16T13:58:34;3.23;;;1.63;;
3359;SDS011;1693;49.602;11.046;2023-07-16T14:01:02;3.47;;;1.63;;
3359;SDS011;1693;49.602;11.046;2023-07-16T14:03:29;3.20;;;1.87;;
3359;SDS011;1693;49.602;11.046;2023-07-16T14:05:56;3.63;;;1.60;;
3359;SDS011;1693;49.602;11.046;2023-07-16T14:08:23;6.47;;;2.20;;
3359;SDS011;1693;49.602;11.046;2023-07-16T14:10:51;3.30;;;2.57;;
3359;SDS011;1693;49.602;11.046;2023-07-16T14:13:18;4.80;;;2.00;;
3359;SDS011;1693;49.602;11.046;2023-07-16T14:15:45;1.90;;;1.53;;
3359;SDS011;1693;49.602;11.046;2023-07-16T14:18:13;3.83;;;1.90;;
3359;SDS011;1693;49.602;11.046;2023-07-16T14:20:42;5.10;;;2.00;;
3359;SDS011;1693;49.602;11.046;2023-07-16T14:23:10;3.90;;;1.97;;
3359;SDS011;1693;49.602;11.046;2023-07-16T14:25:37;2.27;;;1.93;;
3359;SDS011;1693;49.602;11.046;2023-07-16T14:28:04;3.93;;;2.37;;
3359;SDS011;1693;49.602;11.046;2023-07-16T14:30:31;2.90;;;2.27;;
3359;SDS011;1693;49.602;11.046;2023-07-16T14:32:58;3.50;;;1.93;;
3359;SDS011;1693;49.602;11.046;2023-07-16T14:35:29;3.60;;;2.07;;
3359;SDS011;1693;49.602;11.046;2023-07-16T14:37:57;2.60;;;1.90;;
3359;SDS011;1693;49.602;11.046;2023-07-16T14:40:24;3.50;;;2.07;;
3359;SDS011;1693;49.602;11.046;2023-07-16T14:42:52;3.10;;;1.73;;
3359;SDS011;1693;49.602;11.046;2023-07-16T14:45:21;3.20;;;1.63;;
3359;SDS011;1693;49.602;11.046;2023-07-16T14:48:10;3.27;;;1.77;;
3359;SDS011;1693;49.602;11.046;2023-07-16T14:50:56;3.17;;;1.70;;
3359;SDS011;1693;49.602;11.046;2023-07-16T14:53:23;6.10;;;2.63;;
3359;SDS011;1693;49.602;11.046;2023-07-16T14:55:50;4.53;;;2.67;;
3359;SDS011;1693;49.602;11.046;2023-07-16T14:58:18;5.47;;;2.83;;
3359;SDS011;1693;49.602;11.046;2023-07-16T15:00:46;6.03;;;2.10;;
3359;SDS011;1693;49.602;11.046;2023-07-16T15:03:13;5.33;;;4.07;;
3359;SDS011;1693;49.602;11.046;2023-07-16T15:05:40;2.93;;;2.00;;
3359;SDS011;1693;49.602;11.046;2023-07-16T15:08:08;5.53;;;2.70;;